Time;durP1;ratioP1;P1;durP2;ratioP2;P2;SDS_P1;SDS_P2;PMS_P1;PMS_P2;Temp;Humidity;BMP_temperature;BMP_pressure;BME280_temperature;BME280_humidity;BME280_pressure;Samples;Min_cycle;Max_cycle;Signal;HPM_P1;HPM_P2
2022/03/21 00:00:38;;;;;;;40.92;26.88;;;7.60;99.90;;;;;;5093218;28;20540;-69
2022/03/21 00:03:05;;;;;;;33.50;23.85;;;7.50;99.90;;;;;;5093342;28;20517;-69
2022/03/21 00:05:30;;;;;;;36.85;24.38;;;7.50;99.90;;;;;;5092527;28;20058;-69
2022/03/21 00:07:57;;;;;;;38.22;23.42;;;7.50;99.90;;;;;;5093206;28;20490;-69
2022/03/21 00:10:22;;;;;;;35.15;23.23;;;7.50;99.90;;;;;;5093282;28;20090;-69
2022/03/21 00:12:51;;;;;;;39.97;25.17;;;7.50;99.90;;;;;;5093215;28;20435;-69
2022/03/21 00:15:17;;;;;;;39.40;24.63;;;7.50;99.90;;;;;;5074916;28;20072;-69
2022/03/21 00:17:43;;;;;;;36.03;24.85;;;7.50;99.90;;;;;;5092955;28;20401;-69
2022/03/21 00:20:11;;;;;;;38.33;24.05;;;7.60;99.90;;;;;;5092853;28;20036;-69
2022/03/21 00:22:37;;;;;;;37.35;23.17;;;7.60;99.90;;;;;;5075056;28;20040;-70
2022/03/21 00:25:05;;;;;;;41.50;23.60;;;7.60;99.90;;;;;;5093074;28;20047;-69
2022/03/21 00:27:32;;;;;;;38.55;22.92;;;7.60;99.90;;;;;;5092571;28;20394;-69
2022/03/21 00:29:57;;;;;;;36.58;23.90;;;7.50;99.90;;;;;;5092729;28;20101;-69
2022/03/21 00:32:23;;;;;;;36.95;23.08;;;7.50;99.90;;;;;;5074708;28;20044;-69
2022/03/21 00:34:48;;;;;;;32.17;22.05;;;7.50;99.90;;;;;;5092631;28;20048;-69
2022/03/21 00:37:14;;;;;;;33.78;22.08;;;7.40;99.90;;;;;;5074527;28;20047;-69
2022/03/21 00:39:40;;;;;;;37.00;23.42;;;7.40;99.90;;;;;;5092793;28;20047;-69
2022/03/21 00:42:09;;;;;;;34.80;22.67;;;7.40;99.90;;;;;;5074439;28;20047;-69
2022/03/21 00:44:34;;;;;;;40.47;23.75;;;7.40;99.90;;;;;;5092510;28;20564;-69
2022/03/21 00:47:00;;;;;;;36.67;23.10;;;7.40;99.90;;;;;;5092307;28;20169;-69
2022/03/21 00:49:26;;;;;;;34.58;22.05;;;7.40;99.90;;;;;;5074315;28;20072;-69
2022/03/21 00:51:51;;;;;;;31.95;21.88;;;7.40;99.90;;;;;;5092266;28;20048;-69
2022/03/21 00:54:17;;;;;;;32.80;20.85;;;7.40;99.90;;;;;;5092395;28;20051;-69
2022/03/21 00:56:42;;;;;;;34.65;22.13;;;7.30;99.90;;;;;;5092028;28;20047;-69
2022/03/21 00:59:08;;;;;;;35.47;21.88;;;7.30;99.90;;;;;;5074149;28;20032;-69
2022/03/21 01:01:33;;;;;;;35.90;21.50;;;7.40;99.90;;;;;;5074360;28;20039;-69
2022/03/21 01:03:59;;;;;;;32.10;21.23;;;7.40;99.90;;;;;;5092217;28;20052;-69
2022/03/21 01:06:24;;;;;;;33.40;21.67;;;7.30;99.90;;;;;;5092073;28;20035;-69
2022/03/21 01:08:50;;;;;;;32.97;19.45;;;7.40;99.90;;;;;;5092334;28;20035;-69
2022/03/21 01:11:15;;;;;;;33.90;20.05;;;7.40;99.90;;;;;;5092105;28;20040;-69
2022/03/21 01:13:42;;;;;;;28.17;18.83;;;7.40;99.90;;;;;;5092209;28;20043;-69
2022/03/21 01:16:09;;;;;;;26.55;18.40;;;7.30;99.90;;;;;;5091101;28;20079;-69
2022/03/21 01:18:34;;;;;;;31.27;19.38;;;7.40;99.90;;;;;;5092064;28;20386;-69
2022/03/21 01:21:00;;;;;;;29.02;18.75;;;7.30;99.90;;;;;;5092082;28;20039;-69
2022/03/21 01:23:26;;;;;;;28.08;18.90;;;7.30;99.90;;;;;;5092114;28;20032;-69
2022/03/21 01:25:51;;;;;;;29.05;18.45;;;7.40;99.90;;;;;;5091834;28;20047;-69
2022/03/21 01:28:17;;;;;;;27.83;17.55;;;7.40;99.90;;;;;;5091992;28;20036;-69
2022/03/21 01:30:42;;;;;;;28.95;19.08;;;7.40;99.90;;;;;;5091743;28;20032;-69
2022/03/21 01:33:08;;;;;;;35.90;19.55;;;7.30;99.90;;;;;;5091649;28;20125;-69
2022/03/21 01:35:34;;;;;;;27.15;18.65;;;7.30;99.90;;;;;;5091750;28;20032;-69
2022/03/21 01:37:59;;;;;;;27.38;17.27;;;7.30;99.90;;;;;;5091985;28;20055;-69
2022/03/21 01:40:25;;;;;;;32.38;18.70;;;7.40;99.90;;;;;;5091864;28;20468;-69
2022/03/21 01:42:51;;;;;;;29.17;18.60;;;7.30;99.90;;;;;;5091874;28;20043;-69
2022/03/21 01:45:17;;;;;;;29.77;20.13;;;7.40;99.90;;;;;;5091597;28;20123;-69
2022/03/21 01:47:44;;;;;;;25.88;18.05;;;7.40;99.90;;;;;;5091611;28;20124;-69
2022/03/21 01:50:11;;;;;;;30.85;18.92;;;7.30;99.90;;;;;;5091840;28;20040;-69
2022/03/21 01:52:37;;;;;;;24.50;17.30;;;7.30;99.90;;;;;;5091749;28;20097;-69
2022/03/21 01:57:50;;;;;;;28.23;18.45;;;7.40;99.90;;;;;;5091680;28;20044;-69
2022/03/21 02:00:16;;;;;;;28.48;18.38;;;7.30;99.90;;;;;;5091757;28;20074;-69
2022/03/21 02:02:42;;;;;;;29.73;18.27;;;7.30;99.90;;;;;;5091837;28;20048;-69
2022/03/21 02:05:09;;;;;;;31.38;20.23;;;7.30;99.90;;;;;;5073824;28;20036;-69
2022/03/21 02:07:35;;;;;;;30.70;19.77;;;7.30;99.90;;;;;;5091446;28;20046;-69
2022/03/21 02:10:02;;;;;;;32.13;19.88;;;7.20;99.90;;;;;;5091581;28;20115;-69
2022/03/21 02:12:29;;;;;;;26.15;18.95;;;7.20;99.90;;;;;;5091511;28;20482;-69
2022/03/21 02:14:55;;;;;;;27.88;18.08;;;7.20;99.90;;;;;;5091474;28;20387;-69
2022/03/21 02:17:24;;;;;;;30.20;18.92;;;7.10;99.90;;;;;;5091397;28;20036;-69
2022/03/21 02:19:50;;;;;;;30.77;19.15;;;7.20;99.90;;;;;;5091564;28;20040;-69
2022/03/21 02:22:29;;;;;;;34.17;20.92;;;7.10;99.90;;;;;;5091632;28;20040;-69
2022/03/21 02:25:01;;;;;;;31.30;19.88;;;7.10;99.90;;;;;;5091488;28;20072;-69
2022/03/21 02:27:29;;;;;;;32.00;20.27;;;7.10;99.90;;;;;;5092691;28;20040;-69
2022/03/21 02:29:56;;;;;;;35.60;21.17;;;7.00;99.90;;;;;;5095248;28;20294;-69
2022/03/21 02:32:22;;;;;;;38.63;23.58;;;7.00;99.90;;;;;;5095279;28;20088;-69
2022/03/21 02:34:48;;;;;;;40.40;24.00;;;7.00;99.90;;;;;;5095181;28;20120;-69
2022/03/21 02:37:17;;;;;;;35.85;22.35;;;7.00;99.90;;;;;;5094819;28;20035;-69
2022/03/21 02:39:44;;;;;;;35.92;22.38;;;7.00;99.90;;;;;;5094828;28;20098;-69
2022/03/21 02:42:10;;;;;;;34.60;22.85;;;6.90;99.90;;;;;;5095162;28;20047;-69
2022/03/21 02:44:38;;;;;;;33.13;22.38;;;6.90;99.90;;;;;;5076719;28;20039;-69
2022/03/21 02:47:05;;;;;;;39.22;23.52;;;6.80;99.90;;;;;;5094644;28;20048;-69
2022/03/21 02:49:31;;;;;;;37.05;22.90;;;6.80;99.90;;;;;;5094830;28;20044;-69
2022/03/21 02:52:01;;;;;;;34.95;22.77;;;6.70;99.90;;;;;;5094718;28;20040;-69
2022/03/21 02:54:27;;;;;;;43.08;23.98;;;6.70;99.90;;;;;;5094897;28;20028;-69
2022/03/21 02:56:53;;;;;;;34.85;23.02;;;6.70;99.90;;;;;;5094569;28;20520;-69
2022/03/21 02:59:19;;;;;;;34.28;23.17;;;6.60;99.90;;;;;;5094803;28;20032;-69
2022/03/21 03:01:45;;;;;;;36.63;24.20;;;6.60;99.90;;;;;;5094558;28;20405;-69
2022/03/21 03:04:10;;;;;;;38.15;22.85;;;6.60;99.90;;;;;;5094568;28;20042;-69
2022/03/21 03:06:39;;;;;;;35.70;21.55;;;6.50;99.90;;;;;;5094218;28;20075;-69
2022/03/21 03:09:07;;;;;;;31.33;20.27;;;6.50;99.90;;;;;;5094336;28;20068;-70
2022/03/21 03:11:36;;;;;;;36.60;20.85;;;6.50;99.90;;;;;;5094358;28;20047;-69
2022/03/21 03:14:01;;;;;;;30.52;19.95;;;6.40;99.90;;;;;;5094442;28;20437;-69
2022/03/21 03:16:27;;;;;;;33.92;20.33;;;6.40;99.90;;;;;;5094002;28;20039;-69
2022/03/21 03:18:52;;;;;;;33.20;20.25;;;6.30;99.90;;;;;;5094313;28;20032;-69
2022/03/21 03:21:21;;;;;;;31.50;21.52;;;6.30;99.90;;;;;;5094010;28;20528;-69
2022/03/21 03:23:50;;;;;;;33.55;20.75;;;6.30;99.90;;;;;;5094364;28;20036;-69
2022/03/21 03:26:16;;;;;;;27.95;18.98;;;6.20;99.90;;;;;;5093763;28;20494;-69
2022/03/21 03:28:41;;;;;;;31.67;18.77;;;6.10;99.90;;;;;;5094219;28;20054;-69
2022/03/21 03:31:07;;;;;;;32.15;19.23;;;6.00;99.90;;;;;;5093663;28;20060;-69
2022/03/21 03:33:32;;;;;;;31.30;18.63;;;5.90;99.90;;;;;;5093964;28;20064;-69
2022/03/21 03:35:58;;;;;;;29.30;18.92;;;5.80;99.90;;;;;;5093505;28;20123;-69
2022/03/21 03:38:24;;;;;;;28.92;18.98;;;5.70;99.90;;;;;;5093621;28;20032;-69
2022/03/21 03:40:50;;;;;;;32.33;18.77;;;5.60;99.90;;;;;;5093365;28;20096;-69
2022/03/21 03:43:16;;;;;;;29.58;18.17;;;5.60;99.90;;;;;;5093711;28;20039;-69
2022/03/21 03:45:43;;;;;;;29.83;19.10;;;5.60;99.90;;;;;;5093453;28;20043;-69
2022/03/21 03:48:09;;;;;;;29.33;19.75;;;5.50;99.90;;;;;;5093664;28;20524;-69
2022/03/21 03:50:35;;;;;;;28.58;17.35;;;5.40;99.90;;;;;;5093454;28;20165;-69
2022/03/21 03:53:01;;;;;;;32.20;20.88;;;5.40;99.90;;;;;;5093727;28;20119;-69
2022/03/21 03:55:26;;;;;;;32.25;20.27;;;5.30;99.90;;;;;;5093374;28;20040;-69
2022/03/21 03:57:52;;;;;;;33.90;21.27;;;5.30;99.90;;;;;;5093569;28;20036;-69
2022/03/21 04:00:18;;;;;;;29.75;19.08;;;5.30;99.90;;;;;;5093392;28;20367;-69
2022/03/21 04:05:29;;;;;;;33.45;19.48;;;5.30;99.90;;;;;;5092975;28;20051;-69
2022/03/21 04:07:55;;;;;;;33.45;20.88;;;5.30;99.90;;;;;;5093389;28;20040;-69
2022/03/21 04:10:21;;;;;;;31.50;19.05;;;5.20;99.90;;;;;;5093281;28;20084;-69
2022/03/21 04:12:50;;;;;;;32.50;19.73;;;5.20;99.90;;;;;;5093192;28;20040;-69
2022/03/21 04:15:18;;;;;;;33.08;21.23;;;5.20;99.90;;;;;;5092948;28;20627;-69
2022/03/21 04:17:44;;;;;;;33.90;19.92;;;5.20;99.90;;;;;;5092948;28;20071;-69
2022/03/21 04:20:10;;;;;;;33.95;19.75;;;5.20;99.90;;;;;;5093188;28;20400;-69
2022/03/21 04:22:36;;;;;;;33.30;21.20;;;5.10;99.90;;;;;;5074838;28;20055;-69
2022/03/21 04:25:07;;;;;;;35.70;21.92;;;5.10;99.90;;;;;;5075125;28;20048;-69
2022/03/21 04:27:33;;;;;;;32.25;21.52;;;5.10;99.90;;;;;;5092709;28;20036;-69
2022/03/21 04:30:00;;;;;;;33.97;21.10;;;5.10;99.90;;;;;;5092599;28;20046;-69
2022/03/21 04:32:25;;;;;;;34.38;21.05;;;5.00;99.90;;;;;;5074632;28;20044;-69
2022/03/21 04:34:51;;;;;;;31.88;21.00;;;5.00;99.90;;;;;;5074560;28;20040;-69
2022/03/21 04:37:17;;;;;;;33.33;21.75;;;5.00;99.90;;;;;;5092657;28;20118;-69
2022/03/21 04:39:42;;;;;;;38.63;23.55;;;5.00;99.90;;;;;;5092739;28;20074;-69
2022/03/21 04:42:08;;;;;;;34.72;21.80;;;5.00;99.90;;;;;;5092670;28;20042;-69
2022/03/21 04:44:34;;;;;;;32.08;19.70;;;5.00;99.90;;;;;;5074381;28;20075;-69
2022/03/21 04:47:00;;;;;;;31.90;19.50;;;5.00;99.90;;;;;;5092454;28;20065;-69
2022/03/21 04:49:25;;;;;;;35.33;19.65;;;4.90;99.90;;;;;;5092744;28;20044;-69
2022/03/21 04:51:51;;;;;;;33.00;20.88;;;4.80;99.90;;;;;;5092428;28;20039;-69
2022/03/21 04:54:16;;;;;;;32.05;19.83;;;4.80;99.90;;;;;;5092588;28;20145;-69
2022/03/21 04:56:42;;;;;;;39.92;21.48;;;4.80;99.90;;;;;;5092222;28;20064;-69
2022/03/21 04:59:09;;;;;;;34.35;19.88;;;4.80;99.90;;;;;;5092258;28;20028;-69
2022/03/21 05:01:35;;;;;;;34.58;20.38;;;4.80;99.90;;;;;;5092461;28;20075;-69
2022/03/21 05:04:01;;;;;;;32.10;20.02;;;4.80;99.90;;;;;;5092482;28;20051;-69
2022/03/21 05:06:27;;;;;;;31.65;20.77;;;4.80;99.90;;;;;;5092104;28;20052;-69
2022/03/21 05:08:52;;;;;;;35.30;21.02;;;4.80;99.90;;;;;;5092310;28;20036;-69
2022/03/21 05:11:18;;;;;;;36.80;20.92;;;4.70;99.90;;;;;;5092087;28;20410;-69
2022/03/21 05:13:43;;;;;;;33.90;20.65;;;4.70;99.90;;;;;;5092001;28;20046;-69
2022/03/21 05:16:09;;;;;;;33.78;21.10;;;4.70;99.90;;;;;;5092036;28;20058;-69
2022/03/21 05:18:35;;;;;;;34.15;20.33;;;4.70;99.90;;;;;;5092241;28;20043;-69
2022/03/21 05:21:01;;;;;;;39.13;20.60;;;4.60;99.90;;;;;;5092072;28;20489;-69
2022/03/21 05:31:40;;;;;;;37.10;20.23;;;4.50;99.90;;;;;;5091623;28;20525;-69
2022/03/21 05:36:50;;;;;;;32.20;20.90;;;4.50;99.90;;;;;;5091414;28;20055;-69
2022/03/21 05:39:16;;;;;;;37.88;21.10;;;4.50;99.90;;;;;;5091888;28;20043;-69
2022/03/21 05:41:42;;;;;;;38.45;24.42;;;4.50;99.90;;;;;;5091692;28;20040;-69
2022/03/21 05:44:09;;;;;;;32.28;21.45;;;4.50;99.90;;;;;;5091846;28;20040;-69
2022/03/21 05:46:34;;;;;;;39.92;22.30;;;4.50;99.90;;;;;;5091448;28;20042;-69
2022/03/21 05:49:00;;;;;;;33.20;19.45;;;4.50;99.90;;;;;;5091690;28;20123;-69
2022/03/21 05:51:32;;;;;;;35.28;22.20;;;4.50;99.90;;;;;;5091429;28;20040;-69
2022/03/21 05:54:00;;;;;;;34.35;19.55;;;4.50;99.90;;;;;;5091854;28;20093;-69
2022/03/21 05:56:28;;;;;;;36.10;21.00;;;4.50;99.90;;;;;;5091464;28;20036;-69
2022/03/21 05:58:56;;;;;;;33.45;19.33;;;4.50;99.90;;;;;;5073626;28;20109;-68
2022/03/21 06:01:23;;;;;;;33.22;20.02;;;4.50;99.90;;;;;;5073492;28;20081;-68
2022/03/21 06:03:55;;;;;;;37.15;21.42;;;4.50;99.90;;;;;;5095080;28;20409;-69
2022/03/21 06:06:24;;;;;;;33.72;20.48;;;4.60;99.90;;;;;;5095522;28;20040;-69
2022/03/21 06:08:51;;;;;;;35.58;20.15;;;4.60;99.90;;;;;;5077640;28;20084;-69
2022/03/21 06:11:17;;;;;;;35.00;19.92;;;4.60;99.90;;;;;;5077425;28;20374;-69
2022/03/21 06:13:43;;;;;;;28.27;18.48;;;4.60;99.90;;;;;;5095424;28;20078;-69
2022/03/21 06:16:10;;;;;;;39.78;22.45;;;4.60;99.90;;;;;;5095125;28;20088;-69
2022/03/21 06:18:37;;;;;;;35.72;21.95;;;4.60;99.90;;;;;;5095309;28;20032;-69
2022/03/21 06:21:06;;;;;;;36.08;21.05;;;4.50;99.90;;;;;;5077016;28;20044;-69
2022/03/21 06:23:32;;;;;;;39.75;21.48;;;4.60;99.90;;;;;;5077109;28;20040;-69
2022/03/21 06:25:58;;;;;;;36.20;21.73;;;4.60;99.90;;;;;;5076794;28;20073;-69
2022/03/21 06:28:26;;;;;;;39.70;22.25;;;4.70;99.90;;;;;;5095245;28;20059;-69
2022/03/21 06:30:53;;;;;;;45.58;21.17;;;4.70;99.90;;;;;;5076703;28;20099;-69
2022/03/21 06:33:22;;;;;;;32.13;18.65;;;4.80;99.90;;;;;;5076876;28;20523;-69
2022/03/21 06:35:48;;;;;;;36.28;19.33;;;5.00;99.90;;;;;;5094912;28;20036;-69
2022/03/21 06:38:14;;;;;;;38.42;20.63;;;5.20;99.90;;;;;;5094944;28;20550;-69
2022/03/21 06:40:40;;;;;;;36.25;19.42;;;5.40;99.90;;;;;;5094932;28;20063;-69
2022/03/21 06:43:06;;;;;;;32.38;19.65;;;5.60;99.90;;;;;;5094829;28;20050;-69
2022/03/21 06:45:32;;;;;;;36.25;19.77;;;5.80;99.90;;;;;;5094165;28;20051;-69
2022/03/21 06:47:58;;;;;;;36.78;20.33;;;6.00;99.90;;;;;;5094907;28;20044;-69
2022/03/21 06:50:24;;;;;;;35.63;22.65;;;6.30;99.90;;;;;;5094832;28;20051;-69
2022/03/21 06:52:49;;;;;;;38.50;22.27;;;6.40;99.90;;;;;;5094692;28;20040;-69
2022/03/21 06:55:16;;;;;;;42.22;22.70;;;6.50;99.90;;;;;;5094529;28;20047;-69
2022/03/21 06:57:42;;;;;;;37.80;21.80;;;6.70;99.90;;;;;;5076418;28;20036;-69
2022/03/21 07:00:08;;;;;;;35.78;21.35;;;6.90;99.90;;;;;;5094264;28;20043;-69
2022/03/21 07:02:34;;;;;;;35.67;21.00;;;7.10;99.90;;;;;;5085148;28;20050;-69
2022/03/21 07:05:01;;;;;;;32.60;20.48;;;7.30;99.90;;;;;;5083875;28;20090;-68
2022/03/21 07:07:27;;;;;;;33.90;19.75;;;7.40;99.90;;;;;;5082962;28;20465;-69
2022/03/21 07:09:52;;;;;;;33.10;19.75;;;7.60;99.90;;;;;;5084878;28;20106;-69
2022/03/21 07:12:19;;;;;;;35.22;20.13;;;7.80;99.90;;;;;;5091806;28;20169;-68
2022/03/21 07:14:46;;;;;;;32.13;20.00;;;7.90;99.90;;;;;;5092999;28;20032;-68
2022/03/21 07:17:12;;;;;;;30.40;18.23;;;7.90;99.90;;;;;;5094152;28;20046;-68
2022/03/21 07:19:37;;;;;;;30.55;19.67;;;8.00;99.90;;;;;;5094312;28;20115;-68
2022/03/21 07:22:03;;;;;;;29.63;18.10;;;8.10;99.90;;;;;;5094345;28;20064;-68
2022/03/21 07:24:29;;;;;;;32.22;20.73;;;8.20;99.90;;;;;;5094193;28;20047;-68
2022/03/21 07:26:55;;;;;;;32.03;17.95;;;8.40;99.90;;;;;;5093720;28;20040;-68
2022/03/21 07:29:20;;;;;;;30.95;18.88;;;8.60;99.90;;;;;;5093833;28;20066;-68
2022/03/21 07:31:46;;;;;;;30.85;18.23;;;8.90;99.90;;;;;;5093703;28;20036;-68
2022/03/21 07:34:13;;;;;;;29.35;18.73;;;9.00;99.90;;;;;;5094052;28;20119;-68
2022/03/21 07:36:39;;;;;;;29.25;18.02;;;9.20;99.90;;;;;;5075509;28;20040;-69
2022/03/21 07:39:05;;;;;;;27.63;18.77;;;9.40;99.90;;;;;;5093855;28;20123;-68
2022/03/21 07:41:31;;;;;;;29.58;17.92;;;9.60;99.90;;;;;;5093691;28;20044;-69
2022/03/21 07:43:57;;;;;;;33.45;18.33;;;9.80;99.90;;;;;;5093583;28;20040;-68
2022/03/21 07:49:09;;;;;;;28.60;17.92;;;10.20;99.90;;;;;;5093783;28;20050;-68
2022/03/21 07:51:35;;;;;;;26.90;18.58;;;10.40;99.90;;;;;;5093426;28;20040;-68
2022/03/21 07:54:02;;;;;;;26.45;18.33;;;10.60;99.90;;;;;;5093512;28;20036;-68
2022/03/21 07:56:28;;;;;;;23.85;16.58;;;10.70;99.90;;;;;;5093077;28;20047;-68
2022/03/21 07:58:54;;;;;;;22.13;16.48;;;10.70;99.90;;;;;;5093650;28;20114;-69
2022/03/21 08:01:19;;;;;;;25.45;16.50;;;10.80;99.90;;;;;;5093474;28;20111;-68
2022/03/21 08:03:47;;;;;;;30.27;17.80;;;10.80;99.90;;;;;;5093489;28;20032;-68
2022/03/21 08:06:13;;;;;;;30.10;16.38;;;10.90;99.90;;;;;;5093076;28;20134;-68
2022/03/21 08:08:39;;;;;;;26.35;17.00;;;11.20;99.90;;;;;;5093301;28;20668;-68
2022/03/21 08:11:05;;;;;;;23.33;16.13;;;11.30;99.90;;;;;;5092979;28;20136;-68
2022/03/21 08:13:32;;;;;;;26.90;15.43;;;11.30;99.90;;;;;;5093298;28;20075;-68
2022/03/21 08:15:59;;;;;;;23.65;15.45;;;11.40;99.10;;;;;;5093029;28;20036;-69
2022/03/21 08:18:25;;;;;;;22.48;16.02;;;11.50;98.10;;;;;;5093161;28;20043;-68
2022/03/21 08:20:50;;;;;;;26.15;15.57;;;11.50;98.20;;;;;;5093031;28;20032;-68
2022/03/21 08:23:16;;;;;;;25.45;16.05;;;11.70;97.00;;;;;;5092958;28;20036;-68
2022/03/21 08:25:45;;;;;;;28.15;17.20;;;11.80;96.90;;;;;;5092594;28;20078;-68
2022/03/21 08:28:11;;;;;;;26.27;15.73;;;11.90;96.00;;;;;;5093130;28;20031;-69
2022/03/21 08:30:38;;;;;;;26.55;16.67;;;12.00;96.30;;;;;;5092815;28;20378;-68
2022/03/21 08:33:07;;;;;;;23.42;16.90;;;12.10;95.80;;;;;;5092987;28;20097;-69
2022/03/21 08:35:35;;;;;;;23.52;16.02;;;12.30;94.80;;;;;;5092408;28;20516;-69
2022/03/21 08:38:01;;;;;;;22.13;16.77;;;12.40;94.20;;;;;;5092672;28;20111;-69
2022/03/21 08:40:27;;;;;;;21.77;15.00;;;12.30;93.30;;;;;;5092843;28;20107;-69
2022/03/21 08:42:52;;;;;;;26.10;15.75;;;12.30;93.50;;;;;;5092766;28;20524;-69
2022/03/21 08:45:18;;;;;;;27.15;15.82;;;12.40;92.80;;;;;;5092360;28;20044;-68
2022/03/21 08:47:44;;;;;;;23.58;16.08;;;12.60;92.20;;;;;;5092580;28;20047;-69
2022/03/21 08:50:11;;;;;;;25.63;16.52;;;12.80;91.30;;;;;;5092511;28;20044;-69
2022/03/21 08:52:37;;;;;;;26.65;17.88;;;13.00;90.00;;;;;;5092323;28;20135;-69
2022/03/21 08:55:06;;;;;;;26.02;17.20;;;13.10;88.40;;;;;;5092290;28;20068;-69
2022/03/21 08:57:33;;;;;;;23.02;16.85;;;13.40;85.90;;;;;;5092317;28;20040;-69
2022/03/21 08:59:58;;;;;;;26.17;17.10;;;13.20;85.80;;;;;;5080328;28;20070;-69
2022/03/21 09:02:24;;;;;;;28.65;17.85;;;13.40;84.30;;;;;;5071286;28;20482;-69
2022/03/21 09:04:50;;;;;;;26.58;16.90;;;13.50;83.50;;;;;;5088907;28;20028;-69
2022/03/21 09:07:16;;;;;;;26.38;17.48;;;13.60;82.80;;;;;;5091794;28;20036;-69
2022/03/21 09:09:42;;;;;;;25.50;17.00;;;13.70;81.80;;;;;;5092268;28;20044;-69
2022/03/21 09:12:09;;;;;;;31.90;19.42;;;13.70;80.90;;;;;;5092174;28;20063;-68
2022/03/21 09:14:35;;;;;;;27.98;18.30;;;13.70;80.60;;;;;;5074307;28;20512;-68
2022/03/21 09:17:01;;;;;;;27.73;18.60;;;13.70;80.80;;;;;;5091860;28;20036;-69
2022/03/21 09:19:29;;;;;;;28.88;17.80;;;13.70;79.10;;;;;;5092123;28;20040;-69
2022/03/21 09:21:55;;;;;;;31.67;18.48;;;13.70;79.50;;;;;;5091824;28;20090;-70
2022/03/21 09:24:21;;;;;;;25.17;18.27;;;13.60;78.20;;;;;;5092150;28;20047;-69
2022/03/21 09:26:47;;;;;;;27.58;18.17;;;13.70;77.40;;;;;;5091641;28;20043;-69
2022/03/21 09:29:12;;;;;;;34.65;20.95;;;13.70;76.30;;;;;;5091902;28;20032;-69
2022/03/21 09:31:40;;;;;;;26.25;18.52;;;13.70;75.60;;;;;;5091737;28;20085;-69
2022/03/21 09:34:06;;;;;;;26.13;18.63;;;13.50;74.70;;;;;;5091810;28;20044;-70
2022/03/21 09:36:31;;;;;;;31.73;18.80;;;13.40;76.30;;;;;;5089501;28;20051;-68
2022/03/21 09:38:57;;;;;;;28.50;19.15;;;13.50;76.10;;;;;;5084184;28;20032;-68
2022/03/21 09:41:27;;;;;;;32.10;18.63;;;13.60;75.70;;;;;;5083610;28;20036;-69
2022/03/21 09:44:00;;;;;;;30.48;18.73;;;13.50;75.00;;;;;;5081465;28;20422;-68
2022/03/21 09:46:26;;;;;;;35.05;19.23;;;13.60;74.40;;;;;;5080230;28;20043;-68
2022/03/21 09:48:54;;;;;;;31.98;19.45;;;13.50;73.90;;;;;;5081213;28;20027;-71
2022/03/21 09:51:22;;;;;;;26.35;17.95;;;13.50;74.00;;;;;;5082305;28;20036;-69
2022/03/21 09:53:48;;;;;;;26.17;17.13;;;13.40;73.20;;;;;;5081183;28;20024;-68
2022/03/21 09:56:15;;;;;;;27.75;18.77;;;13.50;73.50;;;;;;5081929;28;20077;-68
2022/03/21 09:58:41;;;;;;;29.83;17.73;;;13.30;72.00;;;;;;5063794;28;20405;-69
2022/03/21 10:01:06;;;;;;;28.60;18.45;;;13.40;72.40;;;;;;5083491;28;20030;-69
2022/03/21 10:03:34;;;;;;;34.40;20.30;;;13.40;71.80;;;;;;5073729;28;20402;-60
2022/03/21 10:06:00;;;;;;;31.77;19.65;;;13.40;71.60;;;;;;5091426;28;20044;-61
2022/03/21 10:08:27;;;;;;;31.67;19.95;;;13.40;71.10;;;;;;5091535;28;20038;-60
2022/03/21 10:10:59;;;;;;;27.05;19.25;;;13.40;70.30;;;;;;5091480;28;20051;-60
2022/03/21 10:13:29;;;;;;;29.70;17.38;;;13.40;70.70;;;;;;5091297;28;20051;-59
2022/03/21 10:16:14;;;;;;;27.83;18.35;;;13.30;69.90;;;;;;5091020;28;20066;-60
2022/03/21 10:18:52;;;;;;;28.60;17.63;;;13.40;70.50;;;;;;5080928;28;20119;-60
2022/03/21 10:21:19;;;;;;;30.55;19.30;;;13.50;70.70;;;;;;5070980;28;20033;-59
2022/03/21 10:24:07;;;;;;;30.90;18.38;;;13.50;70.50;;;;;;5071225;28;20040;-60
2022/03/21 10:26:36;;;;;;;28.55;18.58;;;13.50;70.30;;;;;;5070867;28;20040;-59
2022/03/21 10:29:08;;;;;;;29.13;17.95;;;13.50;69.60;;;;;;5053226;28;20045;-60
2022/03/21 10:31:38;;;;;;;27.38;17.33;;;13.50;68.30;;;;;;5070903;28;20123;-61
2022/03/21 10:34:06;;;;;;;25.05;16.80;;;13.60;67.90;;;;;;5071169;28;20064;-59
2022/03/21 10:36:32;;;;;;;27.90;19.00;;;13.60;67.40;;;;;;5070730;28;20036;-60
2022/03/21 10:39:09;;;;;;;31.73;19.35;;;13.40;67.00;;;;;;5071013;28;20067;-60
2022/03/21 10:41:36;;;;;;;28.08;18.67;;;13.40;66.20;;;;;;5070911;28;20044;-60
2022/03/21 10:44:04;;;;;;;28.15;19.40;;;13.40;66.90;;;;;;5071009;28;20688;-60
2022/03/21 10:46:29;;;;;;;29.25;16.95;;;13.30;68.90;;;;;;5070678;28;20044;-60
2022/03/21 10:49:08;;;;;;;30.63;19.17;;;13.30;68.50;;;;;;5072891;28;20520;-61
2022/03/21 10:51:48;;;;;;;30.20;19.48;;;13.30;65.70;;;;;;5074520;28;20429;-61
2022/03/21 10:54:36;;;;;;;30.70;19.38;;;13.30;65.80;;;;;;5074634;28;20079;-61
2022/03/21 10:57:02;;;;;;;28.85;20.23;;;13.30;64.00;;;;;;5074250;28;20375;-61
2022/03/21 10:59:28;;;;;;;28.23;18.70;;;13.30;65.00;;;;;;5074545;28;20033;-61
2022/03/21 11:02:17;;;;;;;28.55;20.00;;;13.40;64.80;;;;;;5074116;28;20421;-61
2022/03/21 11:04:44;;;;;;;30.40;19.17;;;13.40;63.90;;;;;;5074632;28;20421;-61
2022/03/21 11:07:14;;;;;;;26.05;17.90;;;13.40;64.00;;;;;;5074124;28;20115;-61
2022/03/21 11:09:41;;;;;;;24.55;16.95;;;13.40;63.30;;;;;;5074260;28;20087;-61
2022/03/21 11:12:09;;;;;;;26.67;18.05;;;13.40;63.70;;;;;;5074103;28;20036;-61
2022/03/21 11:14:40;;;;;;;29.15;19.98;;;13.40;62.00;;;;;;5074324;28;20040;-61
2022/03/21 11:17:07;;;;;;;27.00;18.38;;;13.50;62.10;;;;;;5073859;28;20044;-61
2022/03/21 11:19:34;;;;;;;32.25;19.90;;;13.50;62.70;;;;;;5074073;28;20432;-61
2022/03/21 11:22:00;;;;;;;25.90;18.58;;;13.40;62.30;;;;;;5074027;28;20051;-61
2022/03/21 11:24:28;;;;;;;32.00;18.83;;;13.30;62.70;;;;;;5073932;28;20520;-60
2022/03/21 11:27:12;;;;;;;26.35;18.10;;;13.30;63.00;;;;;;5073562;28;20114;-61
2022/03/21 11:29:52;;;;;;;26.15;18.88;;;13.40;63.00;;;;;;5073872;28;20051;-60
2022/03/21 11:32:42;;;;;;;29.88;18.08;;;13.40;63.30;;;;;;5073973;28;20040;-60
2022/03/21 11:35:14;;;;;;;27.05;17.75;;;13.40;61.30;;;;;;5073622;28;20514;-60
2022/03/21 11:37:40;;;;;;;27.48;19.02;;;13.40;62.70;;;;;;5073510;28;20494;-60
2022/03/21 11:40:31;;;;;;;29.17;19.60;;;13.40;64.00;;;;;;5073766;28;20090;-60
2022/03/21 11:43:22;;;;;;;32.45;19.42;;;13.40;62.30;;;;;;5073742;28;20048;-60
2022/03/21 11:45:55;;;;;;;27.90;17.75;;;13.50;62.90;;;;;;5073225;28;20440;-60
2022/03/21 11:48:23;;;;;;;26.73;17.02;;;13.50;63.50;;;;;;5073715;28;20037;-60
2022/03/21 11:50:56;;;;;;;29.70;17.98;;;13.90;63.50;;;;;;5073355;28;20047;-60
2022/03/21 11:53:31;;;;;;;28.92;17.70;;;13.90;62.10;;;;;;5073288;28;20414;-61
2022/03/21 11:55:57;;;;;;;31.50;18.58;;;14.00;62.30;;;;;;5072992;28;20112;-61
2022/03/21 11:58:23;;;;;;;29.20;17.65;;;14.10;61.70;;;;;;5073528;28;20029;-60
2022/03/21 12:01:09;;;;;;;31.05;18.23;;;14.10;61.50;;;;;;5072729;28;20097;-60
2022/03/21 12:03:35;;;;;;;27.77;17.20;;;14.00;61.10;;;;;;5073255;28;20097;-61
2022/03/21 12:06:19;;;;;;;30.45;17.98;;;14.10;61.20;;;;;;5072820;28;20044;-60
2022/03/21 12:08:51;;;;;;;;;;;14.10;59.50;;;;;;5073737;28;20044;-60
2022/03/21 12:11:38;;;;;;;27.38;17.70;;;14.00;59.00;;;;;;5072905;28;19970;-61
2022/03/21 12:14:25;;;;;;;24.88;16.55;;;14.10;58.50;;;;;;5073037;28;20041;-61
2022/03/21 12:17:24;;;;;;;25.02;16.83;;;14.20;58.30;;;;;;5072655;28;20044;-61
2022/03/21 12:19:52;;;;;;;24.10;17.83;;;14.40;58.80;;;;;;5072896;28;20048;-61
2022/03/21 12:22:27;;;;;;;25.20;17.30;;;14.40;59.50;;;;;;5055100;28;20052;-61
2022/03/21 12:24:53;;;;;;;29.42;19.30;;;14.50;59.60;;;;;;5072681;28;20497;-60
2022/03/21 12:27:34;;;;;;;27.60;17.27;;;14.50;60.80;;;;;;5072314;28;20437;-61
2022/03/21 12:30:23;;;;;;;26.45;17.02;;;14.60;60.30;;;;;;5072581;28;20048;-61
2022/03/21 12:33:10;;;;;;;24.02;16.27;;;14.80;59.50;;;;;;5072472;28;20410;-61
2022/03/21 12:35:39;;;;;;;27.52;18.05;;;14.90;60.00;;;;;;5072118;28;20036;-61
2022/03/21 12:38:22;;;;;;;32.10;19.13;;;14.80;60.80;;;;;;5072642;28;20044;-61
2022/03/21 12:40:49;;;;;;;26.90;17.90;;;14.70;60.30;;;;;;5074690;28;20033;-62
2022/03/21 12:43:22;;;;;;;27.63;17.92;;;14.90;60.50;;;;;;5086837;28;20044;-61
2022/03/21 12:45:49;;;;;;;25.42;17.25;;;14.90;59.50;;;;;;5092357;28;20050;-61
2022/03/21 12:48:17;;;;;;;27.73;17.83;;;14.90;59.30;;;;;;5092480;28;20047;-61
2022/03/21 12:50:47;;;;;;;25.52;18.05;;;14.80;58.30;;;;;;5092712;28;20603;-61
2022/03/21 12:53:19;;;;;;;27.17;18.67;;;14.90;60.50;;;;;;5092475;28;20055;-61
2022/03/21 12:56:04;;;;;;;26.05;17.55;;;14.80;58.90;;;;;;5092182;28;20039;-61